Time;durP1;ratioP1;P1;durP2;ratioP2;P2;SDS_P1;SDS_P2;PMS_P1;PMS_P2;Temp;Humidity;BMP_temperature;BMP_pressure;BME280_temperature;BME280_humidity;BME280_pressure;Samples;Min_cycle;Max_cycle;Signal;HPM_P1;HPM_P2
2022/03/03 00:01:29;;;;;;;29.63;15.50;;;5.60;96.80;;;;;;5031698;28;20400;-69
2022/03/03 00:04:34;;;;;;;19.65;12.73;;;5.70;97.00;;;;;;5032024;28;20044;-69
2022/03/03 00:07:38;;;;;;;23.17;11.82;;;5.70;96.80;;;;;;5032168;28;20287;-69
2022/03/03 00:10:42;;;;;;;19.60;9.70;;;5.70;96.80;;;;;;5031705;28;20515;-69
2022/03/03 00:13:47;;;;;;;13.82;8.32;;;5.80;97.10;;;;;;5032089;28;20048;-70
2022/03/03 00:16:50;;;;;;;11.57;6.18;;;5.80;97.20;;;;;;5030451;28;20057;-69
2022/03/03 00:19:55;;;;;;;11.65;6.75;;;5.80;97.10;;;;;;5031646;28;20052;-69
2022/03/03 00:22:59;;;;;;;13.88;6.93;;;5.80;97.10;;;;;;5031431;28;20045;-70
2022/03/03 00:26:04;;;;;;;19.40;10.98;;;5.90;97.30;;;;;;5031029;28;20415;-69
2022/03/03 00:29:09;;;;;;;14.23;8.38;;;5.80;97.30;;;;;;5031894;28;20048;-70
2022/03/03 00:32:13;;;;;;;11.52;6.90;;;5.90;97.40;;;;;;5031444;28;20047;-69
2022/03/03 00:35:18;;;;;;;10.75;6.03;;;5.80;97.20;;;;;;5031612;28;20531;-70
2022/03/03 00:38:22;;;;;;;11.77;6.88;;;5.80;97.20;;;;;;5031765;28;20048;-70
2022/03/03 00:41:26;;;;;;;10.70;5.80;;;5.80;97.00;;;;;;5031127;28;20045;-70
2022/03/03 00:44:30;;;;;;;6.93;4.78;;;5.80;96.60;;;;;;5031507;28;20036;-70
2022/03/03 00:47:34;;;;;;;16.15;8.20;;;5.80;96.20;;;;;;5031429;28;20033;-69
2022/03/03 00:50:39;;;;;;;9.27;5.70;;;5.80;96.40;;;;;;5030924;28;20048;-69
2022/03/03 00:53:43;;;;;;;10.52;6.43;;;5.80;96.50;;;;;;5030267;28;20037;-70
2022/03/03 00:56:47;;;;;;;9.90;5.57;;;5.80;96.80;;;;;;5030936;28;20040;-70
2022/03/03 00:59:51;;;;;;;13.00;6.18;;;5.80;96.70;;;;;;5031395;28;20045;-70
2022/03/03 01:02:55;;;;;;;11.55;6.15;;;5.70;96.80;;;;;;5030594;28;20045;-69
2022/03/03 01:05:59;;;;;;;12.13;6.35;;;5.70;96.80;;;;;;5030892;28;20045;-70
2022/03/03 01:09:04;;;;;;;11.77;6.35;;;5.70;96.60;;;;;;5031143;28;20044;-70
2022/03/03 01:12:10;;;;;;;12.05;7.20;;;5.70;96.80;;;;;;5018327;28;20061;-70
2022/03/03 01:15:14;;;;;;;13.48;7.45;;;5.80;97.10;;;;;;5030533;28;20053;-70
2022/03/03 01:18:18;;;;;;;16.73;8.57;;;5.70;97.20;;;;;;5030630;28;20045;-69
2022/03/03 01:21:22;;;;;;;12.75;7.15;;;5.70;97.50;;;;;;5030151;28;20638;-70
2022/03/03 01:24:25;;;;;;;11.55;7.20;;;5.80;97.70;;;;;;5030806;28;20045;-70
2022/03/03 01:27:31;;;;;;;20.30;7.88;;;5.70;97.90;;;;;;5029508;28;20040;-70
2022/03/03 01:30:35;;;;;;;12.85;7.82;;;5.70;98.10;;;;;;5030501;28;20044;-70
2022/03/03 01:33:39;;;;;;;13.50;7.13;;;5.70;98.20;;;;;;5030511;28;20040;-70
2022/03/03 01:36:43;;;;;;;11.55;7.30;;;5.70;98.00;;;;;;5030296;28;20048;-70
2022/03/03 01:39:47;;;;;;;11.98;7.28;;;5.70;98.00;;;;;;5029819;28;20040;-69
2022/03/03 01:42:52;;;;;;;14.02;6.65;;;5.70;97.60;;;;;;5029992;28;20523;-69
2022/03/03 01:45:56;;;;;;;11.10;5.90;;;5.70;97.40;;;;;;5030383;28;20048;-67
2022/03/03 01:49:01;;;;;;;11.52;6.18;;;5.70;97.30;;;;;;5030382;28;20052;-67
2022/03/03 01:52:05;;;;;;;15.43;6.03;;;5.70;97.00;;;;;;5029149;28;20052;-67
2022/03/03 01:55:10;;;;;;;9.95;6.03;;;5.70;97.00;;;;;;5030140;28;20503;-67
2022/03/03 01:58:14;;;;;;;9.15;5.07;;;5.70;96.80;;;;;;5029963;28;20037;-70
2022/03/03 02:01:18;;;;;;;11.48;5.97;;;5.70;96.40;;;;;;5030001;28;20373;-70
2022/03/03 02:04:22;;;;;;;12.70;6.85;;;5.70;98.60;;;;;;5030259;28;20261;-70
2022/03/03 02:07:26;;;;;;;11.40;6.97;;;5.20;99.90;;;;;;5030108;28;20048;-70
2022/03/03 02:10:32;;;;;;;13.50;6.82;;;5.00;99.90;;;;;;5029957;28;20044;-70
2022/03/03 02:13:36;;;;;;;11.75;7.95;;;4.90;99.90;;;;;;5030339;28;20048;-70
2022/03/03 02:16:40;;;;;;;13.23;7.85;;;4.80;99.90;;;;;;5030088;28;20067;-69
2022/03/03 02:19:45;;;;;;;14.05;8.77;;;4.70;99.90;;;;;;5030384;28;20052;-70
2022/03/03 02:22:51;;;;;;;23.33;12.57;;;4.40;99.90;;;;;;5029672;28;20045;-70
2022/03/03 02:25:56;;;;;;;18.45;11.60;;;4.20;99.90;;;;;;5030120;28;20040;-70
2022/03/03 02:28:59;;;;;;;22.20;13.70;;;3.70;99.90;;;;;;5029661;28;20045;-69
2022/03/03 02:32:07;;;;;;;25.67;14.30;;;3.50;99.90;;;;;;5029486;28;20503;-70
2022/03/03 02:35:11;;;;;;;24.67;15.05;;;3.30;99.90;;;;;;5030038;28;20499;-70
2022/03/03 02:38:15;;;;;;;26.23;14.90;;;3.30;99.90;;;;;;5029633;28;20048;-69
2022/03/03 02:41:20;;;;;;;29.52;15.88;;;3.40;99.90;;;;;;5029151;28;20524;-69
2022/03/03 02:44:24;;;;;;;30.80;17.67;;;3.50;99.90;;;;;;5029418;28;20049;-69
2022/03/03 02:47:28;;;;;;;31.42;16.25;;;3.50;99.90;;;;;;5029503;28;20052;-69
2022/03/03 02:50:32;;;;;;;26.45;14.98;;;3.60;99.90;;;;;;5029348;28;20057;-69
2022/03/03 02:53:36;;;;;;;28.73;15.48;;;3.70;99.90;;;;;;5033421;28;20045;-70
2022/03/03 03:00:05;;;;;;;28.80;16.50;;;3.80;99.90;;;;;;5033815;28;20433;-69
2022/03/03 03:03:10;;;;;;;28.45;16.85;;;3.80;99.90;;;;;;5033341;28;20048;-70
2022/03/03 03:06:14;;;;;;;24.17;14.88;;;3.70;99.90;;;;;;5033408;28;20041;-69
2022/03/03 03:09:18;;;;;;;26.90;16.35;;;3.60;99.90;;;;;;5032292;28;20048;-70
2022/03/03 03:12:22;;;;;;;28.98;16.75;;;3.50;99.90;;;;;;5033028;28;20048;-70
2022/03/03 03:15:27;;;;;;;32.50;17.77;;;3.50;99.90;;;;;;5033126;28;20115;-69
2022/03/03 03:18:31;;;;;;;32.50;19.13;;;3.50;99.90;;;;;;5033251;28;20677;-70
2022/03/03 03:21:35;;;;;;;31.00;18.15;;;3.50;99.90;;;;;;5032169;28;20056;-69
2022/03/03 03:24:39;;;;;;;26.80;17.10;;;3.50;99.90;;;;;;5033340;28;20057;-70
2022/03/03 03:27:44;;;;;;;32.55;17.10;;;3.50;99.90;;;;;;5033167;28;20052;-69
2022/03/03 03:30:49;;;;;;;25.75;15.57;;;;;;;;;;5032727;28;20501;-69
2022/03/03 03:33:53;;;;;;;29.67;17.15;;;3.50;99.90;;;;;;5033426;28;20049;-69
2022/03/03 03:36:57;;;;;;;29.55;17.17;;;3.50;99.90;;;;;;5032767;28;20044;-69
2022/03/03 03:40:02;;;;;;;26.67;15.82;;;3.50;99.90;;;;;;5033168;28;20396;-69
2022/03/03 03:43:06;;;;;;;26.52;15.73;;;3.50;99.90;;;;;;5033183;28;20048;-69
2022/03/03 03:46:10;;;;;;;24.70;14.73;;;3.50;99.90;;;;;;5032863;28;20037;-69
2022/03/03 03:49:14;;;;;;;25.67;15.05;;;3.60;99.90;;;;;;5032769;28;20048;-69
2022/03/03 03:52:18;;;;;;;25.17;14.73;;;3.70;99.90;;;;;;5032096;28;20412;-69
2022/03/03 03:55:23;;;;;;;26.55;14.15;;;3.60;99.90;;;;;;5032344;28;20537;-69
2022/03/03 03:58:28;;;;;;;26.38;14.18;;;3.70;99.90;;;;;;5032220;28;20376;-69
2022/03/03 04:01:32;;;;;;;24.17;12.35;;;3.80;99.90;;;;;;5031627;28;20052;-70
2022/03/03 04:04:36;;;;;;;20.95;12.75;;;3.80;99.90;;;;;;5031990;28;20495;-69
2022/03/03 04:07:41;;;;;;;24.15;13.43;;;4.00;99.90;;;;;;5032451;28;20040;-70
2022/03/03 04:10:45;;;;;;;23.50;13.93;;;3.90;99.90;;;;;;5031678;28;20503;-69
2022/03/03 04:13:50;;;;;;;24.83;13.40;;;3.90;99.90;;;;;;5031885;28;20052;-69
2022/03/03 04:16:54;;;;;;;25.05;15.13;;;3.80;99.90;;;;;;5031532;28;20048;-69
2022/03/03 04:19:58;;;;;;;24.55;14.77;;;3.70;99.90;;;;;;5031892;28;20044;-70
2022/03/03 04:23:02;;;;;;;26.10;14.82;;;3.60;99.90;;;;;;5032084;28;20491;-69
2022/03/03 04:26:06;;;;;;;25.13;14.60;;;3.60;99.90;;;;;;5031482;28;20223;-70
2022/03/03 04:29:10;;;;;;;25.95;14.65;;;3.60;99.90;;;;;;5031401;28;20056;-70
2022/03/03 04:32:14;;;;;;;28.80;15.18;;;3.70;99.90;;;;;;5031293;28;20404;-69
2022/03/03 04:35:18;;;;;;;29.77;14.93;;;3.70;99.90;;;;;;5031788;28;20048;-69
2022/03/03 04:38:23;;;;;;;22.25;13.77;;;3.70;99.90;;;;;;5031636;28;20490;-70
2022/03/03 04:41:27;;;;;;;22.95;13.68;;;3.80;99.90;;;;;;5031336;28;20053;-69
2022/03/03 04:44:31;;;;;;;37.28;16.70;;;3.90;99.90;;;;;;5031621;28;20048;-70
2022/03/03 04:47:35;;;;;;;31.42;18.70;;;3.70;99.90;;;;;;5031459;28;20495;-69
2022/03/03 04:50:39;;;;;;;28.63;16.33;;;3.10;99.90;;;;;;5031002;28;20052;-70
2022/03/03 04:53:43;;;;;;;28.02;16.05;;;3.10;99.90;;;;;;5031173;28;20526;-70
2022/03/03 04:56:47;;;;;;;32.13;15.88;;;3.10;99.90;;;;;;5031441;28;20057;-69
2022/03/03 04:59:51;;;;;;;27.75;15.88;;;3.10;99.90;;;;;;5031143;28;20057;-70
2022/03/03 05:02:56;;;;;;;30.77;16.40;;;3.10;99.90;;;;;;5031126;28;20598;-70
2022/03/03 05:05:59;;;;;;;28.35;15.75;;;3.10;99.90;;;;;;5031519;28;20048;-69
2022/03/03 05:09:05;;;;;;;29.58;17.67;;;3.10;99.90;;;;;;5030816;28;20052;-70
2022/03/03 05:12:09;;;;;;;37.22;16.83;;;3.00;99.90;;;;;;5030596;28;20048;-70
2022/03/03 05:15:13;;;;;;;36.10;18.95;;;3.00;99.90;;;;;;5030650;28;20052;-69
2022/03/03 05:18:18;;;;;;;38.90;18.33;;;3.00;99.90;;;;;;5031173;28;20048;-70
2022/03/03 05:21:22;;;;;;;38.42;20.75;;;2.90;99.90;;;;;;5030241;28;20045;-70
2022/03/03 05:24:26;;;;;;;35.45;20.80;;;3.00;99.90;;;;;;5030735;28;20056;-69
2022/03/03 05:27:30;;;;;;;33.15;20.48;;;2.90;99.90;;;;;;5030104;28;20049;-70
2022/03/03 05:30:34;;;;;;;41.75;21.08;;;2.80;99.90;;;;;;5030105;28;20077;-69
2022/03/03 05:33:38;;;;;;;38.72;20.80;;;2.70;99.90;;;;;;5030344;28;20404;-70
2022/03/03 05:36:42;;;;;;;37.25;19.80;;;2.70;99.90;;;;;;5030841;28;20507;-69
2022/03/03 05:39:46;;;;;;;35.80;19.25;;;2.70;99.90;;;;;;5030872;28;20044;-69
2022/03/03 05:42:50;;;;;;;33.53;20.38;;;2.70;99.90;;;;;;5029978;28;20044;-69
2022/03/03 05:45:55;;;;;;;37.20;20.73;;;2.80;99.90;;;;;;5030282;28;20041;-69
2022/03/03 05:48:59;;;;;;;38.63;20.25;;;2.70;99.90;;;;;;5030403;28;20048;-69
2022/03/03 05:52:03;;;;;;;32.10;18.75;;;2.70;99.90;;;;;;5029877;28;20060;-70
2022/03/03 05:55:08;;;;;;;33.60;19.25;;;2.70;99.90;;;;;;5030343;28;20048;-69
2022/03/03 05:58:15;;;;;;;35.83;20.33;;;2.70;99.90;;;;;;5030268;28;20048;-69
2022/03/03 06:01:20;;;;;;;45.15;24.20;;;2.70;99.90;;;;;;5029616;28;20056;-70
2022/03/03 06:04:27;;;;;;;45.70;23.73;;;2.80;99.90;;;;;;5030294;28;20396;-70
2022/03/03 06:07:39;;;;;;;42.40;22.48;;;2.90;99.90;;;;;;5030113;28;20053;-69
2022/03/03 06:10:51;;;;;;;60.58;24.42;;;2.90;99.90;;;;;;5029328;28;20499;-69
2022/03/03 06:14:07;;;;;;;40.95;20.13;;;3.00;99.90;;;;;;5030105;28;20052;-70
2022/03/03 06:17:11;;;;;;;33.95;19.13;;;3.10;99.90;;;;;;5029912;28;20380;-70
2022/03/03 06:20:18;;;;;;;36.40;18.25;;;3.20;99.90;;;;;;5031028;28;20044;-70
2022/03/03 06:23:23;;;;;;;30.77;16.92;;;3.30;99.90;;;;;;5030853;28;20065;-70
2022/03/03 06:26:27;;;;;;;31.77;16.67;;;3.50;99.90;;;;;;5031377;28;20060;-70
2022/03/03 06:29:33;;;;;;;30.52;17.20;;;3.60;99.90;;;;;;5034055;28;20052;-70
2022/03/03 06:32:36;;;;;;;32.55;17.77;;;3.80;99.90;;;;;;5033482;28;20404;-70
2022/03/03 06:35:41;;;;;;;35.58;18.02;;;3.90;99.90;;;;;;5033857;28;20044;-70
2022/03/03 06:38:45;;;;;;;38.75;20.95;;;4.00;99.90;;;;;;5033961;28;20045;-70
2022/03/03 06:41:50;;;;;;;95.07;44.97;;;4.10;99.90;;;;;;5033275;28;20099;-70
2022/03/03 06:44:54;;;;;;;98.30;48.38;;;4.30;99.90;;;;;;5033802;28;20507;-70
2022/03/03 06:48:00;;;;;;;49.65;27.48;;;4.50;99.90;;;;;;5033789;28;20392;-70
2022/03/03 06:51:05;;;;;;;33.97;19.13;;;4.60;99.90;;;;;;5033120;28;20044;-70
2022/03/03 06:54:15;;;;;;;32.50;17.13;;;4.80;99.90;;;;;;5033536;28;20044;-70
2022/03/03 06:57:23;;;;;;;31.55;18.20;;;4.90;99.90;;;;;;5033597;28;20041;-70
2022/03/03 07:00:32;;;;;;;29.67;17.02;;;5.20;99.90;;;;;;5033424;28;20108;-70
2022/03/03 07:03:37;;;;;;;27.27;14.93;;;5.40;99.90;;;;;;5030768;28;20527;-70
2022/03/03 07:06:43;;;;;;;25.02;15.07;;;5.50;99.90;;;;;;5030748;28;20048;-70
2022/03/03 07:09:47;;;;;;;33.70;19.95;;;5.70;99.90;;;;;;5031928;28;20047;-70
2022/03/03 07:12:53;;;;;;;30.25;15.02;;;5.80;99.90;;;;;;5013026;28;20053;-70
2022/03/03 07:16:11;;;;;;;26.33;15.35;;;5.70;99.90;;;;;;5029649;28;20606;-67
2022/03/03 07:19:34;;;;;;;42.80;23.73;;;5.70;99.90;;;;;;5024375;28;20027;-70
2022/03/03 07:22:59;;;;;;;44.53;22.40;;;5.70;99.90;;;;;;5024419;28;20052;-70
2022/03/03 07:26:08;;;;;;;50.15;24.67;;;5.90;99.90;;;;;;5030540;28;20052;-69
2022/03/03 07:29:15;;;;;;;40.53;22.10;;;6.10;99.90;;;;;;5030171;28;20381;-70
2022/03/03 07:32:20;;;;;;;40.75;22.30;;;6.30;99.90;;;;;;5025663;28;20041;-70
2022/03/03 07:35:25;;;;;;;43.00;25.13;;;6.40;99.90;;;;;;5032332;28;20099;-70
2022/03/03 07:38:35;;;;;;;42.22;23.40;;;6.50;99.90;;;;;;5030073;28;20105;-70
2022/03/03 07:41:42;;;;;;;42.60;22.92;;;6.60;99.90;;;;;;5023034;28;20056;-71
2022/03/03 07:44:47;;;;;;;36.58;22.10;;;6.60;99.90;;;;;;5028471;28;20064;-70
2022/03/03 07:47:55;;;;;;;31.48;18.58;;;6.60;99.90;;;;;;5030736;28;20048;-67
2022/03/03 07:50:59;;;;;;;35.22;17.95;;;6.50;99.90;;;;;;5022855;28;20052;-68
2022/03/03 07:54:03;;;;;;;28.67;17.80;;;6.50;99.90;;;;;;5027038;28;20068;-68
2022/03/03 07:57:15;;;;;;;30.17;16.25;;;6.40;99.90;;;;;;5026718;28;20060;-68
2022/03/03 08:00:20;;;;;;;30.65;16.52;;;5.70;99.90;;;;;;5027271;28;20041;-68
2022/03/03 08:03:25;;;;;;;36.22;18.48;;;5.50;99.90;;;;;;5026131;28;20117;-70
2022/03/03 08:06:32;;;;;;;29.67;17.92;;;4.90;99.90;;;;;;5027221;28;20072;-70
2022/03/03 08:09:38;;;;;;;33.22;18.10;;;5.00;99.90;;;;;;5029062;28;20049;-70
2022/03/03 08:12:43;;;;;;;30.88;18.83;;;4.70;99.90;;;;;;5030470;28;20048;-70
2022/03/03 08:15:48;;;;;;;29.15;18.52;;;4.60;99.90;;;;;;5025766;28;20056;-70
2022/03/03 08:18:56;;;;;;;27.98;16.67;;;4.70;99.90;;;;;;5025445;28;20040;-70
2022/03/03 08:22:00;;;;;;;29.30;18.15;;;4.80;99.90;;;;;;5023436;28;20396;-68
2022/03/03 08:25:08;;;;;;;36.22;18.23;;;5.30;99.90;;;;;;5025677;28;20037;-68
2022/03/03 08:28:11;;;;;;;31.52;19.58;;;5.60;99.90;;;;;;5026976;28;20499;-68
2022/03/03 08:31:28;;;;;;;31.25;18.10;;;5.70;99.90;;;;;;5027816;28;20052;-68
2022/03/03 08:35:07;;;;;;;31.40;18.10;;;5.90;99.90;;;;;;5024104;28;20048;-68
2022/03/03 08:38:17;;;;;;;34.13;20.15;;;5.90;99.90;;;;;;5024090;28;20048;-68
2022/03/03 08:41:23;;;;;;;41.75;24.42;;;5.90;99.90;;;;;;5027113;28;20048;-68
2022/03/03 08:44:34;;;;;;;41.15;23.80;;;6.20;99.90;;;;;;5026331;28;20735;-68
2022/03/03 08:47:42;;;;;;;43.78;26.05;;;6.10;99.90;;;;;;5023099;28;20052;-67
2022/03/03 08:50:50;;;;;;;48.80;29.70;;;6.20;99.90;;;;;;5026557;28;20113;-68
2022/03/03 08:53:56;;;;;;;36.90;21.70;;;6.10;99.90;;;;;;5024076;28;20044;-67
2022/03/03 08:57:00;;;;;;;29.85;17.75;;;6.60;99.90;;;;;;5026649;28;20048;-68
2022/03/03 09:00:08;;;;;;;27.75;16.77;;;6.50;99.90;;;;;;5026066;28;20061;-68
2022/03/03 09:03:12;;;;;;;25.30;15.52;;;7.00;99.90;;;;;;5023934;28;20036;-67
2022/03/03 09:06:18;;;;;;;25.73;15.50;;;7.60;99.90;;;;;;5029555;28;20044;-67
2022/03/03 09:09:22;;;;;;;23.05;14.05;;;8.30;99.90;;;;;;5030694;28;20060;-68
2022/03/03 09:12:26;;;;;;;25.23;14.57;;;8.20;99.90;;;;;;5027901;28;20040;-68
2022/03/03 09:15:30;;;;;;;22.40;13.77;;;8.80;99.90;;;;;;5024494;28;20041;-67
2022/03/03 09:18:34;;;;;;;24.30;14.40;;;9.20;99.90;;;;;;5028202;28;20056;-68
2022/03/03 09:21:38;;;;;;;22.55;14.23;;;10.00;99.90;;;;;;5026578;28;20409;-68
2022/03/03 09:24:42;;;;;;;22.70;14.82;;;9.30;99.90;;;;;;5025684;28;20354;-68
2022/03/03 09:27:47;;;;;;;25.08;15.45;;;9.40;99.90;;;;;;5024256;28;20045;-68
2022/03/03 09:30:51;;;;;;;26.02;14.82;;;9.70;99.90;;;;;;5025109;28;20040;-68
2022/03/03 09:33:55;;;;;;;22.00;14.02;;;9.50;99.60;;;;;;5022209;28;20053;-67
2022/03/03 09:36:59;;;;;;;22.63;14.60;;;9.60;98.90;;;;;;5026122;28;20385;-67
2022/03/03 09:40:05;;;;;;;27.58;16.73;;;9.20;99.70;;;;;;5027892;28;20040;-67
2022/03/03 09:43:09;;;;;;;28.50;16.70;;;9.40;99.80;;;;;;5027621;28;20060;-68
2022/03/03 09:46:13;;;;;;;27.60;16.77;;;10.30;99.20;;;;;;5026981;28;20044;-67
2022/03/03 09:49:18;;;;;;;28.75;18.17;;;11.00;98.10;;;;;;5027809;28;20044;-67
2022/03/03 09:52:22;;;;;;;28.33;17.45;;;11.50;97.20;;;;;;5027714;28;20040;-68
2022/03/03 09:55:26;;;;;;;25.90;16.05;;;12.10;96.80;;;;;;5027269;28;20044;-68
2022/03/03 09:58:30;;;;;;;23.55;15.85;;;13.10;96.20;;;;;;5027033;28;20041;-68
2022/03/03 10:01:34;;;;;;;22.73;15.05;;;13.60;93.40;;;;;;5027233;28;20121;-67
2022/03/03 10:04:39;;;;;;;23.17;15.43;;;13.20;92.90;;;;;;5021651;28;20068;-68
2022/03/03 10:08:04;;;;;;;22.42;14.68;;;13.60;92.80;;;;;;5027746;28;20052;-68
2022/03/03 10:11:09;;;;;;;22.52;14.30;;;15.00;91.70;;;;;;5026848;28;20048;-68
2022/03/03 10:14:13;;;;;;;18.70;13.93;;;16.30;90.10;;;;;;5026874;28;20558;-68
2022/03/03 10:17:17;;;;;;;22.35;14.00;;;17.30;83.80;;;;;;5024667;28;20068;-68
2022/03/03 10:20:23;;;;;;;24.20;14.73;;;17.60;83.40;;;;;;5028242;28;20049;-68
2022/03/03 10:23:32;;;;;;;25.70;16.00;;;17.80;80.70;;;;;;5029108;28;20048;-68
2022/03/03 10:26:38;;;;;;;24.50;16.35;;;16.60;79.30;;;;;;5024831;28;20040;-68
2022/03/03 10:29:47;;;;;;;23.27;15.25;;;15.40;81.00;;;;;;5025207;28;20535;-68
2022/03/03 10:32:51;;;;;;;24.02;16.17;;;15.40;81.80;;;;;;5026802;28;20045;-68
2022/03/03 10:36:11;;;;;;;20.65;13.95;;;14.90;80.00;;;;;;5020374;28;20392;-67
2022/03/03 10:39:15;;;;;;;19.17;13.48;;;15.10;82.80;;;;;;5025925;28;20388;-68
2022/03/03 10:42:22;;;;;;;17.17;12.85;;;16.00;82.50;;;;;;5026823;28;20057;-68
2022/03/03 10:45:27;;;;;;;19.40;12.55;;;14.70;81.30;;;;;;5025511;28;20362;-68
2022/03/03 10:48:31;;;;;;;19.90;11.85;;;17.60;80.60;;;;;;5026564;28;20049;-68
2022/03/03 10:51:36;;;;;;;16.42;11.95;;;18.30;76.30;;;;;;5025112;28;20041;-68
2022/03/03 10:55:15;;;;;;;13.52;11.35;;;20.60;74.70;;;;;;5024964;28;20060;-68
2022/03/03 10:58:19;;;;;;;17.92;10.75;;;17.40;74.50;;;;;;5025738;28;20048;-68
2022/03/03 11:01:25;;;;;;;16.75;10.82;;;20.20;72.10;;;;;;5020255;28;20045;-68
2022/03/03 11:04:29;;;;;;;15.70;11.90;;;20.90;71.40;;;;;;5024515;28;20044;-68
2022/03/03 11:07:34;;;;;;;15.43;11.93;;;20.20;68.40;;;;;;5025475;28;20053;-68
2022/03/03 11:10:38;;;;;;;18.30;11.43;;;18.80;69.20;;;;;;5024759;28;20582;-68
2022/03/03 11:13:44;;;;;;;12.93;10.02;;;20.20;69.60;;;;;;5031981;28;20529;-68
2022/03/03 11:16:49;;;;;;;13.50;10.25;;;23.70;63.70;;;;;;5024440;28;20500;-69
2022/03/03 11:19:58;;;;;;;12.93;9.35;;;26.30;61.90;;;;;;5030737;28;20048;-68
2022/03/03 11:23:02;;;;;;;11.20;8.35;;;27.80;56.50;;;;;;5028056;28;20033;-69
2022/03/03 11:26:08;;;;;;;10.13;8.10;;;28.40;53.60;;;;;;5029849;28;20052;-70
2022/03/03 11:29:15;;;;;;;12.00;8.07;;;26.70;51.90;;;;;;5030155;28;20052;-68
2022/03/03 11:32:19;;;;;;;9.38;7.70;;;24.50;55.10;;;;;;5028395;28;20048;-69
2022/03/03 11:35:26;;;;;;;11.07;7.57;;;24.30;54.30;;;;;;5032586;28;20052;-68
2022/03/03 11:38:51;;;;;;;10.20;7.60;;;24.90;52.90;;;;;;5027042;28;20052;-68
2022/03/03 11:41:55;;;;;;;10.75;7.00;;;25.10;53.50;;;;;;5031270;28;20044;-69
2022/03/03 11:45:01;;;;;;;8.18;6.40;;;27.40;54.30;;;;;;5029008;28;20049;-69
2022/03/03 11:48:15;;;;;;;9.57;6.65;;;29.20;53.20;;;;;;5025249;28;20060;-70
2022/03/03 11:51:34;;;;;;;11.48;6.40;;;31.80;51.60;;;;;;5028068;28;20532;-69
2022/03/03 11:54:41;;;;;;;9.07;5.88;;;33.50;49.10;;;;;;5032318;28;20376;-70
2022/03/03 11:57:46;;;;;;;9.23;6.30;;;34.30;47.00;;;;;;5024484;28;20420;-70
2022/03/03 12:00:57;;;;;;;8.45;5.90;;;30.90;47.80;;;;;;5021294;28;20045;-69
2022/03/03 12:04:05;;;;;;;7.43;6.15;;;31.90;47.90;;;;;;5027000;28;20072;-69
2022/03/03 12:07:29;;;;;;;10.45;7.32;;;30.10;47.10;;;;;;5027142;28;20530;-68
2022/03/03 12:10:34;;;;;;;11.35;7.18;;;26.50;50.00;;;;;;5028080;28;20045;-69
2022/03/03 12:13:38;;;;;;;10.82;7.78;;;26.50;50.80;;;;;;5028816;28;20053;-69
2022/03/03 12:16:41;;;;;;;10.95;7.15;;;24.60;51.40;;;;;;5026543;28;20536;-69
2022/03/03 12:19:46;;;;;;;10.18;6.90;;;24.10;54.40;;;;;;5025550;28;20590;-69
2022/03/03 12:23:02;;;;;;;10.43;7.10;;;26.60;53.20;;;;;;5026334;28;20060;-69
2022/03/03 12:26:08;;;;;;;11.63;7.38;;;26.60;51.50;;;;;;5028543;28;20045;-68
2022/03/03 12:29:30;;;;;;;10.73;8.05;;;25.10;53.60;;;;;;5026933;28;20048;-69
2022/03/03 12:32:38;;;;;;;11.35;7.35;;;25.60;53.60;;;;;;5030381;28;20045;-68
2022/03/03 12:35:43;;;;;;;8.80;6.68;;;23.20;55.00;;;;;;5026971;28;20060;-68
2022/03/03 12:38:47;;;;;;;9.93;7.82;;;21.40;56.90;;;;;;5027824;28;20048;-68
2022/03/03 12:41:56;;;;;;;12.82;7.28;;;20.10;59.30;;;;;;5030621;28;20063;-69
2022/03/03 12:45:10;;;;;;;10.45;7.72;;;23.40;57.40;;;;;;5027412;28;20048;-68
2022/03/03 12:48:30;;;;;;;12.25;7.07;;;24.80;54.30;;;;;;5022788;28;20380;-68
2022/03/03 12:51:34;;;;;;;10.90;7.53;;;24.10;53.50;;;;;;5029229;28;20037;-68
2022/03/03 12:54:39;;;;;;;10.38;8.02;;;19.70;59.10;;;;;;5021737;28;20044;-68
2022/03/03 12:57:43;;;;;;;10.75;7.90;;;19.90;58.20;;;;;;5027105;28;20056;-68
2022/03/03 13:00:49;;;;;;;11.68;8.32;;;21.50;58.80;;;;;;5027532;28;20065;-68
2022/03/03 13:03:54;;;;;;;11.73;7.97;;;22.40;56.80;;;;;;5023918;28;20045;-68
2022/03/03 13:07:06;;;;;;;10.50;7.97;;;20.10;57.70;;;;;;5029796;28;20393;-68
2022/03/03 13:10:17;;;;;;;11.85;7.32;;;21.60;58.00;;;;;;5030253;28;20036;-68
2022/03/03 13:13:21;;;;;;;10.32;7.63;;;23.10;56.70;;;;;;5028477;28;20040;-68
2022/03/03 13:16:27;;;;;;;12.23;8.40;;;21.70;57.30;;;;;;5028451;28;20056;-68
2022/03/03 13:19:31;;;;;;;16.05;9.90;;;18.70;59.80;;;;;;5027804;28;20499;-67
2022/03/03 13:22:38;;;;;;;12.95;8.15;;;17.20;64.50;;;;;;5028819;28;20052;-68
2022/03/03 13:25:42;;;;;;;13.40;7.78;;;16.80;64.70;;;;;;5029390;28;20052;-68
2022/03/03 13:28:51;;;;;;;9.90;7.70;;;16.70;65.20;;;;;;5029760;28;20040;-68
2022/03/03 13:31:55;;;;;;;12.60;7.45;;;17.80;65.50;;;;;;5024001;28;20062;-68
2022/03/03 13:34:59;;;;;;;13.02;7.60;;;18.70;63.40;;;;;;5025175;28;20040;-68
2022/03/03 13:38:05;;;;;;;11.90;8.15;;;18.80;62.90;;;;;;5027861;28;20048;-68
2022/03/03 13:41:34;;;;;;;9.75;7.15;;;20.10;62.40;;;;;;5028777;28;20061;-69
2022/03/03 13:44:59;;;;;;;10.27;7.40;;;22.20;59.50;;;;;;5027237;28;20041;-69
2022/03/03 13:48:13;;;;;;;11.73;7.30;;;24.20;57.00;;;;;;5028047;28;20068;-69
2022/03/03 13:51:18;;;;;;;9.52;6.90;;;25.50;55.00;;;;;;5027935;28;20045;-69
2022/03/03 13:54:22;;;;;;;13.15;7.70;;;26.10;53.70;;;;;;5029281;28;20037;-68
2022/03/03 13:57:42;;;;;;;11.30;8.00;;;22.90;56.00;;;;;;5024263;28;20048;-69
2022/03/03 14:00:48;;;;;;;10.45;7.10;;;23.30;55.20;;;;;;5027057;28;20052;-69
2022/03/03 14:03:52;;;;;;;10.50;7.70;;;24.20;54.70;;;;;;5027970;28;20290;-68
2022/03/03 14:06:56;;;;;;;8.88;7.00;;;24.40;54.80;;;;;;5027682;28;20041;-68
2022/03/03 14:10:06;;;;;;;11.38;7.28;;;25.10;54.60;;;;;;5024936;28;20037;-69
2022/03/03 14:13:10;;;;;;;11.93;7.07;;;26.50;53.60;;;;;;5028895;28;20068;-69
2022/03/03 14:16:15;;;;;;;11.50;7.07;;;26.90;52.20;;;;;;5028553;28;20052;-69
2022/03/03 14:19:19;;;;;;;9.07;6.65;;;24.50;53.90;;;;;;5028719;28;20087;-68
2022/03/03 14:22:25;;;;;;;9.32;7.18;;;21.00;56.80;;;;;;5027885;28;20511;-68
2022/03/03 14:25:29;;;;;;;8.70;6.78;;;20.30;60.80;;;;;;5024113;28;20048;-68
2022/03/03 14:28:34;;;;;;;10.45;7.70;;;21.30;58.70;;;;;;5028977;28;20052;-68
2022/03/03 14:31:38;;;;;;;12.65;8.30;;;19.70;59.80;;;;;;5017663;28;20032;-69
2022/03/03 14:34:43;;;;;;;10.32;7.38;;;17.50;63.50;;;;;;5009317;28;20048;-68
2022/03/03 14:37:47;;;;;;;12.35;8.02;;;18.40;62.80;;;;;;5028226;28;20056;-68
2022/03/03 14:40:52;;;;;;;9.38;7.40;;;19.20;60.90;;;;;;5029036;28;20048;-68
2022/03/03 14:43:57;;;;;;;12.45;7.80;;;18.50;61.00;;;;;;5029467;28;20044;-68
2022/03/03 14:47:01;;;;;;;19.77;14.02;;;18.10;62.60;;;;;;5030037;28;20044;-68
2022/03/03 14:50:06;;;;;;;11.82;7.22;;;20.40;60.80;;;;;;5033574;28;20057;-68
2022/03/03 14:53:10;;;;;;;11.52;7.00;;;22.10;58.80;;;;;;5018454;28;20060;-68
2022/03/03 14:56:15;;;;;;;10.30;7.45;;;20.70;56.60;;;;;;5024989;28;20503;-68
2022/03/03 14:59:18;;;;;;;11.85;7.90;;;18.10;61.10;;;;;;5013755;28;20060;-68
2022/03/03 15:02:24;;;;;;;12.63;6.97;;;18.60;61.60;;;;;;5026878;28;20068;-69
2022/03/03 15:05:28;;;;;;;9.32;6.72;;;19.90;60.70;;;;;;5032647;28;20052;-68
2022/03/03 15:08:32;;;;;;;8.68;6.80;;;20.90;59.00;;;;;;5032862;28;20037;-68
2022/03/03 15:11:36;;;;;;;10.13;6.70;;;19.30;60.70;;;;;;5033451;28;20044;-68
2022/03/03 15:14:40;;;;;;;11.88;6.82;;;20.00;60.00;;;;;;5032738;28;20037;-67
2022/03/03 15:17:44;;;;;;;11.10;6.65;;;19.90;59.70;;;;;;5034320;28;20506;-68
2022/03/03 15:20:48;;;;;;;7.90;6.22;;;18.70;62.30;;;;;;5032035;28;20084;-68
2022/03/03 15:23:53;;;;;;;9.52;6.32;;;17.50;64.70;;;;;;5013273;28;20086;-68
2022/03/03 15:26:57;;;;;;;9.77;6.55;;;17.20;64.80;;;;;;5013088;28;20404;-67
2022/03/03 15:30:01;;;;;;;9.30;6.60;;;16.20;65.80;;;;;;5012827;28;20061;-68
2022/03/03 15:33:05;;;;;;;10.38;6.28;;;16.10;67.60;;;;;;5030355;28;20049;-68
2022/03/03 15:39:31;;;;;;;;;;;17.10;67.00;;;;;;5017488;28;20534;-68
2022/03/03 15:42:36;;;;;;;10.43;5.53;;;17.40;67.40;;;;;;5030666;28;19912;-68
2022/03/03 15:45:40;;;;;;;12.70;5.80;;;17.40;67.40;;;;;;5032768;28;20052;-68
2022/03/03 15:48:44;;;;;;;13.13;6.40;;;17.60;67.60;;;;;;5031074;28;20028;-68
2022/03/03 15:51:49;;;;;;;9.95;6.72;;;16.60;68.80;;;;;;5020501;28;20040;-67
2022/03/03 15:54:53;;;;;;;9.20;6.25;;;16.30;70.40;;;;;;5032999;28;20440;-68
2022/03/03 15:57:57;;;;;;;12.98;6.10;;;16.30;71.50;;;;;;5031081;28;20117;-68
2022/03/03 16:01:01;;;;;;;11.52;6.80;;;16.20;71.10;;;;;;5030884;28;20044;-68
2022/03/03 16:04:07;;;;;;;12.10;6.30;;;16.00;72.20;;;;;;5032001;28;20404;-68